sensor_id;sensor_type;location;lat;lon;timestamp;temperature;humidity
66728;DHT22;53641;44.274;19.890;2023-04-03T00:00:51;13.30;99.90
66728;DHT22;53641;44.274;19.890;2023-04-03T00:03:17;13.30;99.90
66728;DHT22;53641;44.274;19.890;2023-04-03T00:05:43;13.30;99.90
66728;DHT22;53641;44.274;19.890;2023-04-03T00:08:09;13.20;99.90
66728;DHT22;53641;44.274;19.890;2023-04-03T00:10:35;13.20;99.90
66728;DHT22;53641;44.274;19.890;2023-04-03T00:13:02;13.30;99.90
66728;DHT22;53641;44.274;19.890;2023-04-03T00:15:28;13.30;99.90
66728;DHT22;53641;44.274;19.890;2023-04-03T00:17:54;13.10;99.90
66728;DHT22;53641;44.274;19.890;2023-04-03T00:20:20;13.10;99.90
66728;DHT22;53641;44.274;19.890;2023-04-03T00:22:45;13.20;99.90
66728;DHT22;53641;44.274;19.890;2023-04-03T00:25:11;13.10;99.90
66728;DHT22;53641;44.274;19.890;2023-04-03T00:27:37;13.20;99.90
66728;DHT22;53641;44.274;19.890;2023-04-03T00:30:03;13.20;99.90
66728;DHT22;53641;44.274;19.890;2023-04-03T00:32:29;13.20;99.90
66728;DHT22;53641;44.274;19.890;2023-04-03T00:34:55;13.30;99.90
66728;DHT22;53641;44.274;19.890;2023-04-03T00:37:21;13.30;99.90
66728;DHT22;53641;44.274;19.890;2023-04-03T00:39:46;13.30;99.90
66728;DHT22;53641;44.274;19.890;2023-04-03T00:42:12;13.20;99.90
66728;DHT22;53641;44.274;19.890;2023-04-03T00:45:23;13.30;99.90
66728;DHT22;53641;44.274;19.890;2023-04-03T00:47:25;13.30;99.90
66728;DHT22;53641;44.274;19.890;2023-04-03T00:49:52;13.30;99.90
66728;DHT22;53641;44.274;19.890;2023-04-03T00:52:19;13.30;99.90
66728;DHT22;53641;44.274;19.890;2023-04-03T00:54:47;13.30;99.90
66728;DHT22;53641;44.274;19.890;2023-04-03T00:57:14;13.30;99.90
66728;DHT22;53641;44.274;19.890;2023-04-03T00:59:45;13.30;99.90
66728;DHT22;53641;44.274;19.890;2023-04-03T01:02:12;13.30;99.90
66728;DHT22;53641;44.274;19.890;2023-04-03T01:04:38;13.30;99.90
66728;DHT22;53641;44.274;19.890;2023-04-03T01:07:09;13.30;99.90
66728;DHT22;53641;44.274;19.890;2023-04-03T01:09:35;13.30;99.90
66728;DHT22;53641;44.274;19.890;2023-04-03T01:12:16;13.20;99.90
66728;DHT22;53641;44.274;19.890;2023-04-03T01:14:45;13.20;99.90
66728;DHT22;53641;44.274;19.890;2023-04-03T01:17:29;13.10;99.90
66728;DHT22;53641;44.274;19.890;2023-04-03T01:20:00;13.30;99.90
66728;DHT22;53641;44.274;19.890;2023-04-03T01:22:33;13.30;99.90
66728;DHT22;53641;44.274;19.890;2023-04-03T01:25:04;13.10;99.90
66728;DHT22;53641;44.274;19.890;2023-04-03T01:27:30;12.90;99.90
66728;DHT22;53641;44.274;19.890;2023-04-03T01:29:56;12.60;99.90
66728;DHT22;53641;44.274;19.890;2023-04-03T01:32:22;12.70;99.90
66728;DHT22;53641;44.274;19.890;2023-04-03T01:34:47;12.70;99.90
66728;DHT22;53641;44.274;19.890;2023-04-03T01:37:13;12.70;99.90
66728;DHT22;53641;44.274;19.890;2023-04-03T01:39:39;12.80;99.90
66728;DHT22;53641;44.274;19.890;2023-04-03T01:42:04;12.80;99.90
66728;DHT22;53641;44.274;19.890;2023-04-03T01:44:30;12.70;99.90
66728;DHT22;53641;44.274;19.890;2023-04-03T01:46:56;12.70;99.90
66728;DHT22;53641;44.274;19.890;2023-04-03T01:49:22;12.70;99.90
66728;DHT22;53641;44.274;19.890;2023-04-03T01:51:48;12.60;99.90
66728;DHT22;53641;44.274;19.890;2023-04-03T01:54:13;12.70;99.90
66728;DHT22;53641;44.274;19.890;2023-04-03T01:56:39;12.70;99.90
66728;DHT22;53641;44.274;19.890;2023-04-03T01:59:04;12.70;99.90
66728;DHT22;53641;44.274;19.890;2023-04-03T02:01:30;12.60;99.90
66728;DHT22;53641;44.274;19.890;2023-04-03T02:03:56;12.60;99.90
66728;DHT22;53641;44.274;19.890;2023-04-03T02:06:21;12.60;99.90
66728;DHT22;53641;44.274;19.890;2023-04-03T02:08:47;12.40;99.90
66728;DHT22;53641;44.274;19.890;2023-04-03T02:11:13;12.40;99.90
66728;DHT22;53641;44.274;19.890;2023-04-03T02:13:38;12.30;99.90
66728;DHT22;53641;44.274;19.890;2023-04-03T02:16:08;12.40;99.90
66728;DHT22;53641;44.274;19.890;2023-04-03T02:18:35;12.30;99.90
66728;DHT22;53641;44.274;19.890;2023-04-03T02:21:01;12.00;99.90
66728;DHT22;53641;44.274;19.890;2023-04-03T02:23:26;11.90;99.90
66728;DHT22;53641;44.274;19.890;2023-04-03T02:25:52;11.90;99.90
66728;DHT22;53641;44.274;19.890;2023-04-03T02:28:18;11.80;99.90
66728;DHT22;53641;44.274;19.890;2023-04-03T02:30:43;11.70;99.90
66728;DHT22;53641;44.274;19.890;2023-04-03T02:33:09;11.70;99.90
66728;DHT22;53641;44.274;19.890;2023-04-03T02:35:35;11.50;99.90
66728;DHT22;53641;44.274;19.890;2023-04-03T02:38:02;11.40;99.90
66728;DHT22;53641;44.274;19.890;2023-04-03T02:40:27;11.40;99.90
66728;DHT22;53641;44.274;19.890;2023-04-03T02:42:53;11.30;99.90
66728;DHT22;53641;44.274;19.890;2023-04-03T02:45:19;11.20;99.90
66728;DHT22;53641;44.274;19.890;2023-04-03T02:47:44;11.20;99.90
66728;DHT22;53641;44.274;19.890;2023-04-03T02:50:10;11.10;99.90
66728;DHT22;53641;44.274;19.890;2023-04-03T02:52:37;11.10;99.90
66728;DHT22;53641;44.274;19.890;2023-04-03T02:55:02;11.00;99.90
66728;DHT22;53641;44.274;19.890;2023-04-03T02:57:28;11.10;99.90
66728;DHT22;53641;44.274;19.890;2023-04-03T02:59:54;11.10;99.90
66728;DHT22;53641;44.274;19.890;2023-04-03T03:02:20;11.10;99.90
66728;DHT22;53641;44.274;19.890;2023-04-03T03:04:46;11.10;99.90
66728;DHT22;53641;44.274;19.890;2023-04-03T03:07:12;11.20;99.90
66728;DHT22;53641;44.274;19.890;2023-04-03T03:09:37;11.30;99.90
66728;DHT22;53641;44.274;19.890;2023-04-03T03:12:03;11.20;99.90
66728;DHT22;53641;44.274;19.890;2023-04-03T03:14:29;11.20;99.90
66728;DHT22;53641;44.274;19.890;2023-04-03T03:16:54;11.30;99.80
66728;DHT22;53641;44.274;19.890;2023-04-03T03:19:20;11.10;99.70
66728;DHT22;53641;44.274;19.890;2023-04-03T03:21:46;11.20;99.90
66728;DHT22;53641;44.274;19.890;2023-04-03T03:24:11;11.30;99.30
66728;DHT22;53641;44.274;19.890;2023-04-03T03:26:37;11.10;99.60
66728;DHT22;53641;44.274;19.890;2023-04-03T03:29:03;11.20;99.90
66728;DHT22;53641;44.274;19.890;2023-04-03T03:31:28;11.20;99.90
66728;DHT22;53641;44.274;19.890;2023-04-03T03:33:54;11.30;99.90
66728;DHT22;53641;44.274;19.890;2023-04-03T03:36:20;11.20;99.90
66728;DHT22;53641;44.274;19.890;2023-04-03T03:38:45;11.30;99.90
66728;DHT22;53641;44.274;19.890;2023-04-03T03:41:11;11.40;99.90
66728;DHT22;53641;44.274;19.890;2023-04-03T03:43:37;11.40;99.90
66728;DHT22;53641;44.274;19.890;2023-04-03T03:46:02;11.30;99.90
66728;DHT22;53641;44.274;19.890;2023-04-03T03:48:28;11.10;99.90
66728;DHT22;53641;44.274;19.890;2023-04-03T03:50:54;11.10;99.90
66728;DHT22;53641;44.274;19.890;2023-04-03T03:53:19;10.90;99.90
66728;DHT22;53641;44.274;19.890;2023-04-03T03:55:45;10.80;99.90
66728;DHT22;53641;44.274;19.890;2023-04-03T03:58:11;10.70;99.90
66728;DHT22;53641;44.274;19.890;2023-04-03T04:00:36;10.60;99.90
66728;DHT22;53641;44.274;19.890;2023-04-03T04:03:02;10.50;99.90
66728;DHT22;53641;44.274;19.890;2023-04-03T04:05:28;10.30;99.90
66728;DHT22;53641;44.274;19.890;2023-04-03T04:07:54;10.30;99.90
66728;DHT22;53641;44.274;19.890;2023-04-03T04:10:19;10.30;99.90
66728;DHT22;53641;44.274;19.890;2023-04-03T04:12:45;10.20;99.90
66728;DHT22;53641;44.274;19.890;2023-04-03T04:15:11;10.20;99.90
66728;DHT22;53641;44.274;19.890;2023-04-03T04:17:37;10.10;99.90
66728;DHT22;53641;44.274;19.890;2023-04-03T04:20:03;9.90;99.90
66728;DHT22;53641;44.274;19.890;2023-04-03T04:22:30;9.90;99.90
66728;DHT22;53641;44.274;19.890;2023-04-03T04:24:56;9.90;99.90
66728;DHT22;53641;44.274;19.890;2023-04-03T04:27:21;9.90;99.90
66728;DHT22;53641;44.274;19.890;2023-04-03T04:29:47;9.80;99.90
66728;DHT22;53641;44.274;19.890;2023-04-03T04:32:13;9.90;99.90
66728;DHT22;53641;44.274;19.890;2023-04-03T04:34:38;9.90;99.90
66728;DHT22;53641;44.274;19.890;2023-04-03T04:37:04;9.90;99.90
66728;DHT22;53641;44.274;19.890;2023-04-03T04:39:30;9.90;99.90
66728;DHT22;53641;44.274;19.890;2023-04-03T04:41:56;9.90;99.90
66728;DHT22;53641;44.274;19.890;2023-04-03T04:44:22;9.90;99.90
66728;DHT22;53641;44.274;19.890;2023-04-03T04:46:47;9.90;99.90
66728;DHT22;53641;44.274;19.890;2023-04-03T04:49:13;9.80;99.90
66728;DHT22;53641;44.274;19.890;2023-04-03T04:51:39;9.90;99.90
66728;DHT22;53641;44.274;19.890;2023-04-03T04:54:04;9.80;99.90
66728;DHT22;53641;44.274;19.890;2023-04-03T04:56:30;10.00;99.90
66728;DHT22;53641;44.274;19.890;2023-04-03T04:58:56;9.90;99.90
66728;DHT22;53641;44.274;19.890;2023-04-03T05:01:21;9.80;99.90
66728;DHT22;53641;44.274;19.890;2023-04-03T05:03:47;9.80;99.90
66728;DHT22;53641;44.274;19.890;2023-04-03T05:06:13;9.60;99.90
66728;DHT22;53641;44.274;19.890;2023-04-03T05:08:39;9.50;99.90
66728;DHT22;53641;44.274;19.890;2023-04-03T05:11:04;9.50;99.90
66728;DHT22;53641;44.274;19.890;2023-04-03T05:13:30;9.50;99.90
66728;DHT22;53641;44.274;19.890;2023-04-03T05:15:56;9.30;99.90
66728;DHT22;53641;44.274;19.890;2023-04-03T05:18:22;9.40;99.90
66728;DHT22;53641;44.274;19.890;2023-04-03T05:20:50;9.30;99.90
66728;DHT22;53641;44.274;19.890;2023-04-03T05:23:16;9.20;99.90
66728;DHT22;53641;44.274;19.890;2023-04-03T05:25:42;9.20;99.90
66728;DHT22;53641;44.274;19.890;2023-04-03T05:28:10;9.20;99.90
66728;DHT22;53641;44.274;19.890;2023-04-03T05:30:36;9.10;99.90
66728;DHT22;53641;44.274;19.890;2023-04-03T05:33:02;8.80;99.90
66728;DHT22;53641;44.274;19.890;2023-04-03T05:35:27;8.90;99.90
66728;DHT22;53641;44.274;19.890;2023-04-03T05:37:53;8.60;99.90
66728;DHT22;53641;44.274;19.890;2023-04-03T05:40:19;8.60;99.90
66728;DHT22;53641;44.274;19.890;2023-04-03T05:42:44;8.80;99.90
66728;DHT22;53641;44.274;19.890;2023-04-03T05:45:10;8.80;99.90
66728;DHT22;53641;44.274;19.890;2023-04-03T05:47:36;8.80;99.90
66728;DHT22;53641;44.274;19.890;2023-04-03T05:50:02;8.80;99.90
66728;DHT22;53641;44.274;19.890;2023-04-03T05:52:29;8.80;99.90
66728;DHT22;53641;44.274;19.890;2023-04-03T05:57:44;8.80;99.90
66728;DHT22;53641;44.274;19.890;2023-04-03T06:00:12;8.80;99.90
66728;DHT22;53641;44.274;19.890;2023-04-03T06:02:38;8.80;99.90
66728;DHT22;53641;44.274;19.890;2023-04-03T06:05:06;8.80;99.90
66728;DHT22;53641;44.274;19.890;2023-04-03T06:07:32;8.60;99.90
66728;DHT22;53641;44.274;19.890;2023-04-03T06:09:58;8.50;99.90
66728;DHT22;53641;44.274;19.890;2023-04-03T06:12:23;8.60;99.90
66728;DHT22;53641;44.274;19.890;2023-04-03T06:14:50;8.60;99.90
66728;DHT22;53641;44.274;19.890;2023-04-03T06:17:16;8.60;99.90
66728;DHT22;53641;44.274;19.890;2023-04-03T06:19:43;8.50;99.90
66728;DHT22;53641;44.274;19.890;2023-04-03T06:22:09;8.70;99.90
66728;DHT22;53641;44.274;19.890;2023-04-03T06:24:34;8.80;99.90
66728;DHT22;53641;44.274;19.890;2023-04-03T06:27:00;8.60;99.90
66728;DHT22;53641;44.274;19.890;2023-04-03T06:29:26;8.50;99.90
66728;DHT22;53641;44.274;19.890;2023-04-03T06:31:52;8.50;99.90
66728;DHT22;53641;44.274;19.890;2023-04-03T06:34:18;8.50;99.90
66728;DHT22;53641;44.274;19.890;2023-04-03T06:36:43;8.50;99.90
66728;DHT22;53641;44.274;19.890;2023-04-03T06:39:14;8.40;99.90
66728;DHT22;53641;44.274;19.890;2023-04-03T06:41:40;8.30;99.90
66728;DHT22;53641;44.274;19.890;2023-04-03T06:44:06;8.30;99.90
66728;DHT22;53641;44.274;19.890;2023-04-03T06:46:33;8.40;99.90
66728;DHT22;53641;44.274;19.890;2023-04-03T06:48:59;8.60;99.90
66728;DHT22;53641;44.274;19.890;2023-04-03T06:51:26;8.70;99.90
66728;DHT22;53641;44.274;19.890;2023-04-03T06:53:53;8.70;99.90
66728;DHT22;53641;44.274;19.890;2023-04-03T06:56:19;8.70;99.90
66728;DHT22;53641;44.274;19.890;2023-04-03T06:58:45;8.70;99.90
66728;DHT22;53641;44.274;19.890;2023-04-03T07:01:13;8.70;99.90
66728;DHT22;53641;44.274;19.890;2023-04-03T07:03:39;8.70;99.90
66728;DHT22;53641;44.274;19.890;2023-04-03T07:06:05;8.70;99.90
66728;DHT22;53641;44.274;19.890;2023-04-03T07:08:32;8.90;99.90
66728;DHT22;53641;44.274;19.890;2023-04-03T07:10:58;8.80;99.90
66728;DHT22;53641;44.274;19.890;2023-04-03T07:13:24;8.70;99.90
66728;DHT22;53641;44.274;19.890;2023-04-03T07:15:50;8.80;99.90
66728;DHT22;53641;44.274;19.890;2023-04-03T07:18:16;8.80;99.90
66728;DHT22;53641;44.274;19.890;2023-04-03T07:20:42;8.70;99.90
66728;DHT22;53641;44.274;19.890;2023-04-03T07:23:08;8.80;99.90
66728;DHT22;53641;44.274;19.890;2023-04-03T07:25:34;8.90;99.90
66728;DHT22;53641;44.274;19.890;2023-04-03T07:27:59;8.90;99.90
66728;DHT22;53641;44.274;19.890;2023-04-03T07:30:28;8.80;99.90
66728;DHT22;53641;44.274;19.890;2023-04-03T07:32:54;8.90;99.90
66728;DHT22;53641;44.274;19.890;2023-04-03T07:35:20;8.90;99.90
66728;DHT22;53641;44.274;19.890;2023-04-03T07:37:46;9.10;99.90
66728;DHT22;53641;44.274;19.890;2023-04-03T07:40:12;9.00;99.90
66728;DHT22;53641;44.274;19.890;2023-04-03T07:42:38;9.00;99.90
66728;DHT22;53641;44.274;19.890;2023-04-03T07:45:03;8.80;99.90
66728;DHT22;53641;44.274;19.890;2023-04-03T07:47:32;8.80;99.90
66728;DHT22;53641;44.274;19.890;2023-04-03T07:49:57;8.80;99.90
66728;DHT22;53641;44.274;19.890;2023-04-03T07:52:24;8.80;99.90
66728;DHT22;53641;44.274;19.890;2023-04-03T07:54:50;8.90;99.90
66728;DHT22;53641;44.274;19.890;2023-04-03T07:57:16;8.90;99.90
66728;DHT22;53641;44.274;19.890;2023-04-03T07:59:42;9.00;99.90
66728;DHT22;53641;44.274;19.890;2023-04-03T08:02:11;8.90;99.90
66728;DHT22;53641;44.274;19.890;2023-04-03T08:04:40;9.00;99.90
66728;DHT22;53641;44.274;19.890;2023-04-03T08:07:05;8.90;99.90
66728;DHT22;53641;44.274;19.890;2023-04-03T08:09:31;8.80;99.90
66728;DHT22;53641;44.274;19.890;2023-04-03T08:11:57;9.00;99.90
66728;DHT22;53641;44.274;19.890;2023-04-03T08:14:23;9.00;99.90
66728;DHT22;53641;44.274;19.890;2023-04-03T08:16:49;9.00;99.90
66728;DHT22;53641;44.274;19.890;2023-04-03T08:19:17;9.20;99.90
66728;DHT22;53641;44.274;19.890;2023-04-03T08:21:43;9.20;99.90
66728;DHT22;53641;44.274;19.890;2023-04-03T08:24:09;9.10;99.90
66728;DHT22;53641;44.274;19.890;2023-04-03T08:26:35;9.00;99.90
66728;DHT22;53641;44.274;19.890;2023-04-03T08:29:01;9.10;99.90
66728;DHT22;53641;44.274;19.890;2023-04-03T08:31:27;9.10;99.90
66728;DHT22;53641;44.274;19.890;2023-04-03T08:33:53;9.10;99.90
66728;DHT22;53641;44.274;19.890;2023-04-03T08:36:20;9.20;99.90
66728;DHT22;53641;44.274;19.890;2023-04-03T08:38:46;9.10;99.90
66728;DHT22;53641;44.274;19.890;2023-04-03T08:41:35;9.30;99.90
66728;DHT22;53641;44.274;19.890;2023-04-03T08:44:14;9.30;99.90
66728;DHT22;53641;44.274;19.890;2023-04-03T08:46:53;9.20;99.90
66728;DHT22;53641;44.274;19.890;2023-04-03T08:49:26;9.20;99.90
66728;DHT22;53641;44.274;19.890;2023-04-03T08:51:53;9.30;99.90
66728;DHT22;53641;44.274;19.890;2023-04-03T08:54:22;9.30;99.90
66728;DHT22;53641;44.274;19.890;2023-04-03T08:56:48;9.20;99.90
66728;DHT22;53641;44.274;19.890;2023-04-03T08:59:16;9.30;99.90
66728;DHT22;53641;44.274;19.890;2023-04-03T09:01:44;9.40;99.90
66728;DHT22;53641;44.274;19.890;2023-04-03T09:04:11;9.40;99.90
66728;DHT22;53641;44.274;19.890;2023-04-03T09:06:38;9.40;99.90
66728;DHT22;53641;44.274;19.890;2023-04-03T09:09:39;9.40;99.90
66728;DHT22;53641;44.274;19.890;2023-04-03T09:11:55;9.40;99.90
66728;DHT22;53641;44.274;19.890;2023-04-03T09:14:39;9.40;99.90
66728;DHT22;53641;44.274;19.890;2023-04-03T09:17:32;9.30;99.90
66728;DHT22;53641;44.274;19.890;2023-04-03T09:19:56;9.30;99.90
66728;DHT22;53641;44.274;19.890;2023-04-03T09:22:24;9.50;99.90
66728;DHT22;53641;44.274;19.890;2023-04-03T09:24:52;9.50;99.90
66728;DHT22;53641;44.274;19.890;2023-04-03T09:27:21;9.50;99.90
66728;DHT22;53641;44.274;19.890;2023-04-03T09:29:47;9.30;99.90
66728;DHT22;53641;44.274;19.890;2023-04-03T09:32:29;9.40;99.90
66728;DHT22;53641;44.274;19.890;2023-04-03T09:34:58;9.30;99.90
66728;DHT22;53641;44.274;19.890;2023-04-03T09:37:39;9.40;99.90
66728;DHT22;53641;44.274;19.890;2023-04-03T09:40:05;9.50;99.90
66728;DHT22;53641;44.274;19.890;2023-04-03T09:42:32;9.60;99.90
66728;DHT22;53641;44.274;19.890;2023-04-03T09:45:01;9.60;99.90
66728;DHT22;53641;44.274;19.890;2023-04-03T09:47:29;9.60;99.90
66728;DHT22;53641;44.274;19.890;2023-04-03T09:50:17;9.70;99.90
66728;DHT22;53641;44.274;19.890;2023-04-03T09:52:47;9.70;99.90
66728;DHT22;53641;44.274;19.890;2023-04-03T09:55:17;9.70;99.90
66728;DHT22;53641;44.274;19.890;2023-04-03T09:57:46;9.60;99.90
66728;DHT22;53641;44.274;19.890;2023-04-03T10:00:22;9.70;99.90
66728;DHT22;53641;44.274;19.890;2023-04-03T10:02:53;9.80;99.90
66728;DHT22;53641;44.274;19.890;2023-04-03T10:05:31;9.70;99.90
66728;DHT22;53641;44.274;19.890;2023-04-03T10:08:08;9.80;99.90
66728;DHT22;53641;44.274;19.890;2023-04-03T10:10:34;9.70;99.90
66728;DHT22;53641;44.274;19.890;2023-04-03T10:13:05;9.80;99.90
66728;DHT22;53641;44.274;19.890;2023-04-03T10:15:34;9.60;99.90
66728;DHT22;53641;44.274;19.890;2023-04-03T10:18:02;9.70;99.90
66728;DHT22;53641;44.274;19.890;2023-04-03T10:20:33;9.80;99.90
66728;DHT22;53641;44.274;19.890;2023-04-03T10:23:14;9.80;99.90
66728;DHT22;53641;44.274;19.890;2023-04-03T10:25:47;9.80;99.90
66728;DHT22;53641;44.274;19.890;2023-04-03T10:28:18;9.70;99.90
66728;DHT22;53641;44.274;19.890;2023-04-03T10:31:06;9.80;99.90
66728;DHT22;53641;44.274;19.890;2023-04-03T10:33:36;9.90;99.90
66728;DHT22;53641;44.274;19.890;2023-04-03T10:36:25;9.80;99.90
66728;DHT22;53641;44.274;19.890;2023-04-03T10:38:59;10.10;99.90
66728;DHT22;53641;44.274;19.890;2023-04-03T10:41:32;10.30;99.90
66728;DHT22;53641;44.274;19.890;2023-04-03T10:44:14;10.30;99.90
66728;DHT22;53641;44.274;19.890;2023-04-03T10:46:42;10.70;99.90
66728;DHT22;53641;44.274;19.890;2023-04-03T10:49:36;10.90;99.90
66728;DHT22;53641;44.274;19.890;2023-04-03T10:52:12;11.20;99.90
66728;DHT22;53641;44.274;19.890;2023-04-03T10:54:43;11.30;99.90
66728;DHT22;53641;44.274;19.890;2023-04-03T10:57:11;11.40;99.90
66728;DHT22;53641;44.274;19.890;2023-04-03T10:59:45;11.40;99.90
66728;DHT22;53641;44.274;19.890;2023-04-03T11:02:19;11.60;99.90
66728;DHT22;53641;44.274;19.890;2023-04-03T11:04:48;11.60;99.90
66728;DHT22;53641;44.274;19.890;2023-04-03T11:07:18;11.20;99.90
66728;DHT22;53641;44.274;19.890;2023-04-03T11:09:48;11.30;99.90
66728;DHT22;53641;44.274;19.890;2023-04-03T11:12:51;11.30;99.90
66728;DHT22;53641;44.274;19.890;2023-04-03T11:15:01;11.70;99.90
66728;DHT22;53641;44.274;19.890;2023-04-03T11:17:31;11.80;99.90
66728;DHT22;53641;44.274;19.890;2023-04-03T11:20:33;11.70;99.90
66728;DHT22;53641;44.274;19.890;2023-04-03T11:22:47;11.90;99.90
66728;DHT22;53641;44.274;19.890;2023-04-03T11:25:16;11.90;99.90
66728;DHT22;53641;44.274;19.890;2023-04-03T11:27:55;11.90;99.90
66728;DHT22;53641;44.274;19.890;2023-04-03T11:30:24;11.80;99.90
66728;DHT22;53641;44.274;19.890;2023-04-03T11:33:24;11.60;99.90
66728;DHT22;53641;44.274;19.890;2023-04-03T11:35:42;11.40;99.90
66728;DHT22;53641;44.274;19.890;2023-04-03T11:38:10;11.20;99.90
66728;DHT22;53641;44.274;19.890;2023-04-03T11:40:40;11.10;99.90
66728;DHT22;53641;44.274;19.890;2023-04-03T11:43:07;11.20;99.90
66728;DHT22;53641;44.274;19.890;2023-04-03T11:45:54;11.10;99.90
66728;DHT22;53641;44.274;19.890;2023-04-03T11:53:54;11.30;99.90
66728;DHT22;53641;44.274;19.890;2023-04-03T11:56:40;11.30;99.90
66728;DHT22;53641;44.274;19.890;2023-04-03T12:02:01;11.10;99.90
66728;DHT22;53641;44.274;19.890;2023-04-03T12:04:28;10.80;99.90
66728;DHT22;53641;44.274;19.890;2023-04-03T12:07:11;10.70;99.90
66728;DHT22;53641;44.274;19.890;2023-04-03T12:12:57;10.90;99.90
66728;DHT22;53641;44.274;19.890;2023-04-03T12:15:26;11.00;99.90
66728;DHT22;53641;44.274;19.890;2023-04-03T12:17:52;11.00;99.90
66728;DHT22;53641;44.274;19.890;2023-04-03T12:20:53;11.10;99.90
66728;DHT22;53641;44.274;19.890;2023-04-03T12:23:08;10.90;99.90
66728;DHT22;53641;44.274;19.890;2023-04-03T12:25:47;10.90;99.90
66728;DHT22;53641;44.274;19.890;2023-04-03T12:28:13;10.70;99.90
66728;DHT22;53641;44.274;19.890;2023-04-03T12:30:39;10.50;99.90
66728;DHT22;53641;44.274;19.890;2023-04-03T12:33:18;10.40;99.90
66728;DHT22;53641;44.274;19.890;2023-04-03T12:35:57;10.20;99.90
66728;DHT22;53641;44.274;19.890;2023-04-03T12:38:37;10.10;99.90
66728;DHT22;53641;44.274;19.890;2023-04-03T12:41:15;9.90;99.90
66728;DHT22;53641;44.274;19.890;2023-04-03T12:43:53;10.00;99.90
66728;DHT22;53641;44.274;19.890;2023-04-03T12:46:22;9.90;99.90
66728;DHT22;53641;44.274;19.890;2023-04-03T12:48:53;10.00;99.90
66728;DHT22;53641;44.274;19.890;2023-04-03T12:51:21;10.00;99.90
66728;DHT22;53641;44.274;19.890;2023-04-03T12:53:48;9.90;99.90
66728;DHT22;53641;44.274;19.890;2023-04-03T12:56:25;9.90;99.90
66728;DHT22;53641;44.274;19.890;2023-04-03T12:58:52;9.90;99.90
66728;DHT22;53641;44.274;19.890;2023-04-03T13:01:20;9.90;99.90
66728;DHT22;53641;44.274;19.890;2023-04-03T13:03:47;9.80;99.90
66728;DHT22;53641;44.274;19.890;2023-04-03T13:06:18;9.80;99.90
66728;DHT22;53641;44.274;19.890;2023-04-03T13:08:51;9.80;99.90
66728;DHT22;53641;44.274;19.890;2023-04-03T13:11:17;9.90;99.90
66728;DHT22;53641;44.274;19.890;2023-04-03T13:13:53;9.90;99.90
66728;DHT22;53641;44.274;19.890;2023-04-03T13:16:19;9.90;99.90
66728;DHT22;53641;44.274;19.890;2023-04-03T13:18:49;9.90;99.90
66728;DHT22;53641;44.274;19.890;2023-04-03T13:21:17;9.80;99.90
66728;DHT22;53641;44.274;19.890;2023-04-03T13:23:44;9.90;99.90
66728;DHT22;53641;44.274;19.890;2023-04-03T13:26:10;9.90;99.90
66728;DHT22;53641;44.274;19.890;2023-04-03T13:28:37;10.00;99.90
66728;DHT22;53641;44.274;19.890;2023-04-03T13:31:07;9.90;99.90
66728;DHT22;53641;44.274;19.890;2023-04-03T13:33:36;9.90;99.90
66728;DHT22;53641;44.274;19.890;2023-04-03T13:36:06;9.80;99.90
66728;DHT22;53641;44.274;19.890;2023-04-03T13:38:33;10.00;99.90
66728;DHT22;53641;44.274;19.890;2023-04-03T13:41:03;9.90;99.90
66728;DHT22;53641;44.274;19.890;2023-04-03T13:43:34;9.80;99.90
66728;DHT22;53641;44.274;19.890;2023-04-03T13:46:02;9.70;99.90
66728;DHT22;53641;44.274;19.890;2023-04-03T13:48:37;9.80;99.90
66728;DHT22;53641;44.274;19.890;2023-04-03T13:51:05;9.70;99.90
66728;DHT22;53641;44.274;19.890;2023-04-03T13:53:31;9.70;99.90
66728;DHT22;53641;44.274;19.890;2023-04-03T13:56:06;9.80;99.90
66728;DHT22;53641;44.274;19.890;2023-04-03T13:58:32;9.70;99.90
66728;DHT22;53641;44.274;19.890;2023-04-03T14:01:14;9.80;99.90
66728;DHT22;53641;44.274;19.890;2023-04-03T14:03:47;9.70;99.90
66728;DHT22;53641;44.274;19.890;2023-04-03T14:06:19;9.70;99.90
66728;DHT22;53641;44.274;19.890;2023-04-03T14:08:46;9.70;99.90
66728;DHT22;53641;44.274;19.890;2023-04-03T14:11:17;9.80;99.90
66728;DHT22;53641;44.274;19.890;2023-04-03T14:13:44;9.80;99.90
66728;DHT22;53641;44.274;19.890;2023-04-03T14:16:12;9.80;99.90
66728;DHT22;53641;44.274;19.890;2023-04-03T14:18:38;9.70;99.90
66728;DHT22;53641;44.274;19.890;2023-04-03T14:21:04;9.70;99.90
66728;DHT22;53641;44.274;19.890;2023-04-03T14:23:30;9.60;99.90
66728;DHT22;53641;44.274;19.890;2023-04-03T14:25:56;9.70;99.90
66728;DHT22;53641;44.274;19.890;2023-04-03T14:28:22;9.70;99.90
66728;DHT22;53641;44.274;19.890;2023-04-03T14:30:51;9.70;99.90
66728;DHT22;53641;44.274;19.890;2023-04-03T14:33:18;9.70;99.90
66728;DHT22;53641;44.274;19.890;2023-04-03T14:35:44;9.80;99.90
66728;DHT22;53641;44.274;19.890;2023-04-03T14:38:20;9.70;99.90
66728;DHT22;53641;44.274;19.890;2023-04-03T14:40:46;9.70;99.90
66728;DHT22;53641;44.274;19.890;2023-04-03T14:43:12;9.70;99.90
66728;DHT22;53641;44.274;19.890;2023-04-03T14:45:38;9.70;99.90
66728;DHT22;53641;44.274;19.890;2023-04-03T14:48:04;9.60;99.90
66728;DHT22;53641;44.274;19.890;2023-04-03T14:50:31;9.50;99.90
66728;DHT22;53641;44.274;19.890;2023-04-03T14:53:00;9.70;99.90
66728;DHT22;53641;44.274;19.890;2023-04-03T14:55:26;9.70;99.90
66728;DHT22;53641;44.274;19.890;2023-04-03T14:57:55;9.60;99.90
66728;DHT22;53641;44.274;19.890;2023-04-03T15:00:23;9.70;99.90
66728;DHT22;53641;44.274;19.890;2023-04-03T15:02:49;9.60;99.90
66728;DHT22;53641;44.274;19.890;2023-04-03T15:05:15;9.70;99.90
66728;DHT22;53641;44.274;19.890;2023-04-03T15:07:49;9.60;99.90
66728;DHT22;53641;44.274;19.890;2023-04-03T15:10:23;9.60;99.90
66728;DHT22;53641;44.274;19.890;2023-04-03T15:12:51;9.70;99.90
66728;DHT22;53641;44.274;19.890;2023-04-03T15:15:18;9.60;99.90
66728;DHT22;53641;44.274;19.890;2023-04-03T15:17:45;9.60;99.90
66728;DHT22;53641;44.274;19.890;2023-04-03T15:20:17;9.70;99.90
66728;DHT22;53641;44.274;19.890;2023-04-03T15:22:44;9.70;99.90
66728;DHT22;53641;44.274;19.890;2023-04-03T15:25:09;9.70;99.90
66728;DHT22;53641;44.274;19.890;2023-04-03T15:27:36;9.70;99.90
66728;DHT22;53641;44.274;19.890;2023-04-03T15:30:02;9.60;99.90
66728;DHT22;53641;44.274;19.890;2023-04-03T15:32:28;9.70;99.90
66728;DHT22;53641;44.274;19.890;2023-04-03T15:34:56;9.70;99.90
66728;DHT22;53641;44.274;19.890;2023-04-03T15:37:21;9.60;99.90
66728;DHT22;53641;44.274;19.890;2023-04-03T15:39:47;9.60;99.90
66728;DHT22;53641;44.274;19.890;2023-04-03T15:42:13;9.60;99.90
66728;DHT22;53641;44.274;19.890;2023-04-03T15:44:38;9.70;99.90
66728;DHT22;53641;44.274;19.890;2023-04-03T15:47:04;9.60;99.90